createdAt,value
2023-05-17T00:00:00.128Z,10.26
2023-05-17T00:02:29.585Z,10.19
2023-05-17T00:05:01.520Z,10.13
2023-05-17T00:07:31.099Z,10.08
2023-05-17T00:10:00.791Z,10.02
2023-05-17T00:12:30.545Z,9.98
2023-05-17T00:15:00.144Z,9.97
2023-05-17T00:17:29.961Z,10.00
2023-05-17T00:20:02.982Z,10.08
2023-05-17T00:22:32.340Z,10.20
2023-05-17T00:25:02.011Z,10.32
2023-05-17T00:27:31.695Z,10.36
2023-05-17T00:30:01.224Z,10.32
2023-05-17T00:32:33.168Z,10.27
2023-05-17T00:35:04.007Z,10.21
2023-05-17T00:37:32.941Z,10.24
2023-05-17T00:40:02.630Z,10.29
2023-05-17T00:42:32.417Z,10.34
2023-05-17T00:45:01.556Z,10.41
2023-05-17T00:47:31.216Z,10.49
2023-05-17T00:50:03.022Z,10.53
2023-05-17T00:52:45.688Z,10.55
2023-05-17T00:55:15.122Z,10.53
2023-05-17T00:57:46.097Z,10.44
2023-05-17T01:00:18.081Z,10.32
2023-05-17T01:02:49.640Z,10.18
2023-05-17T01:05:19.125Z,10.07
2023-05-17T01:07:53.100Z,9.98
2023-05-17T01:10:23.814Z,9.90
2023-05-17T01:13:09.705Z,9.82
2023-05-17T01:15:45.711Z,9.76
2023-05-17T01:18:23.303Z,9.71
2023-05-17T01:21:01.124Z,9.67
2023-05-17T01:23:50.795Z,9.63
2023-05-17T01:26:36.485Z,9.62
2023-05-17T01:29:10.629Z,9.63
2023-05-17T01:31:42.521Z,9.64
2023-05-17T01:34:22.201Z,9.63
2023-05-17T01:36:53.550Z,9.55
2023-05-17T01:39:23.966Z,9.52
2023-05-17T01:42:10.861Z,9.53
2023-05-17T01:44:52.816Z,9.64
2023-05-17T01:47:33.105Z,9.77
2023-05-17T01:50:03.815Z,9.86
2023-05-17T01:52:40.532Z,9.93
2023-05-17T01:55:22.874Z,9.99
2023-05-17T01:57:59.683Z,10.00
2023-05-17T02:00:32.420Z,9.98
2023-05-17T02:03:01.933Z,9.93
2023-05-17T02:05:32.431Z,9.94
2023-05-17T02:08:01.813Z,9.93
2023-05-17T02:10:36.123Z,9.91
2023-05-17T02:13:07.670Z,9.84
2023-05-17T02:15:37.478Z,9.72
2023-05-17T02:18:07.107Z,9.64
2023-05-17T02:20:38.278Z,9.58
2023-05-17T02:23:08.470Z,9.56
2023-05-17T02:25:38.596Z,9.53
2023-05-17T02:28:11.712Z,9.52
2023-05-17T02:30:43.358Z,9.52
2023-05-17T02:33:21.852Z,9.49
2023-05-17T02:35:53.801Z,9.48
2023-05-17T02:38:28.184Z,9.50
2023-05-17T02:40:58.907Z,9.57
2023-05-17T02:43:33.671Z,9.64
2023-05-17T02:46:03.153Z,9.70
2023-05-17T02:48:35.320Z,9.74
2023-05-17T02:51:05.350Z,9.73
2023-05-17T02:53:35.026Z,9.65
2023-05-17T02:56:04.565Z,9.55
2023-05-17T02:58:36.954Z,9.47
2023-05-17T03:01:13.128Z,9.42
2023-05-17T03:03:46.192Z,9.42
2023-05-17T03:06:17.508Z,9.46
2023-05-17T03:08:47.716Z,9.50
2023-05-17T03:11:20.153Z,9.54
2023-05-17T03:13:52.790Z,9.56
2023-05-17T03:16:30.132Z,9.56
2023-05-17T03:19:00.688Z,9.56
2023-05-17T03:21:31.415Z,9.58
2023-05-17T03:24:00.787Z,9.60
2023-05-17T03:26:32.611Z,9.61
2023-05-17T03:29:03.840Z,9.59
2023-05-17T03:31:33.670Z,9.62
2023-05-17T03:34:04.234Z,9.64
2023-05-17T03:36:36.115Z,9.65
2023-05-17T03:39:05.645Z,9.66
2023-05-17T03:41:36.092Z,9.70
2023-05-17T03:44:08.100Z,9.74
2023-05-17T03:46:43.082Z,9.77
2023-05-17T03:49:13.494Z,9.79
2023-05-17T03:51:44.271Z,9.81
2023-05-17T03:54:13.303Z,9.87
2023-05-17T03:56:47.472Z,9.91
2023-05-17T03:59:18.549Z,9.95
2023-05-17T04:01:48.063Z,9.97
2023-05-17T04:04:16.855Z,10.00
2023-05-17T04:06:45.992Z,10.02
2023-05-17T04:09:15.881Z,10.01
2023-05-17T04:11:45.579Z,10.00
2023-05-17T04:14:18.378Z,9.93
2023-05-17T04:16:52.147Z,9.86
2023-05-17T04:19:22.474Z,9.78
2023-05-17T04:22:07.531Z,9.78
2023-05-17T04:24:38.098Z,9.81
2023-05-17T04:27:15.006Z,9.88
2023-05-17T04:29:49.478Z,9.95
2023-05-17T04:32:25.667Z,10.00
2023-05-17T04:34:54.717Z,10.03
2023-05-17T04:37:25.198Z,10.11
2023-05-17T04:39:55.621Z,10.19
2023-05-17T04:42:29.496Z,10.27
2023-05-17T04:45:14.086Z,10.32
2023-05-17T04:47:45.941Z,10.35
2023-05-17T04:50:24.080Z,10.41
2023-05-17T04:52:56.053Z,10.44
2023-05-17T04:55:27.540Z,10.44
2023-05-17T04:58:01.961Z,10.46
2023-05-17T05:00:32.979Z,10.50
2023-05-17T05:03:05.354Z,10.55
2023-05-17T05:05:34.494Z,10.61
2023-05-17T05:08:05.468Z,10.67
2023-05-17T05:10:35.546Z,10.70
2023-05-17T05:13:07.985Z,10.73
2023-05-17T05:15:39.535Z,10.77
2023-05-17T05:18:12.421Z,10.78
2023-05-17T05:20:44.028Z,10.78
2023-05-17T05:23:13.161Z,10.82
2023-05-17T05:25:44.869Z,10.88
2023-05-17T05:28:19.757Z,10.96
2023-05-17T05:30:51.103Z,11.03
2023-05-17T05:33:20.458Z,11.07
2023-05-17T05:35:59.635Z,11.11
2023-05-17T05:38:31.605Z,11.13
2023-05-17T05:41:02.093Z,11.12
2023-05-17T05:43:32.505Z,11.17
2023-05-17T05:46:03.596Z,11.27
2023-05-17T05:48:39.673Z,11.31
2023-05-17T05:51:08.929Z,11.32
2023-05-17T05:53:49.172Z,11.37
2023-05-17T05:56:22.011Z,11.45
2023-05-17T05:58:51.828Z,11.51
2023-05-17T06:01:25.539Z,11.52
2023-05-17T06:03:55.146Z,11.71
2023-05-17T06:06:25.181Z,11.97
2023-05-17T06:08:57.007Z,12.16
2023-05-17T06:11:33.833Z,12.30
2023-05-17T06:14:03.622Z,12.28
2023-05-17T06:16:36.255Z,12.30
2023-05-17T06:19:14.707Z,12.34
2023-05-17T06:21:44.597Z,12.35
2023-05-17T06:24:13.631Z,12.33
2023-05-17T06:26:44.643Z,12.31
2023-05-17T06:29:14.156Z,12.33
2023-05-17T06:31:46.545Z,12.29
2023-05-17T06:34:24.235Z,12.25
2023-05-17T06:36:54.047Z,12.26
2023-05-17T06:39:25.567Z,12.27
2023-05-17T06:41:57.180Z,12.25
2023-05-17T06:44:28.218Z,12.25
2023-05-17T06:47:02.285Z,12.27
2023-05-17T06:49:31.867Z,12.29
2023-05-17T06:52:04.175Z,12.37
2023-05-17T06:54:34.141Z,12.45
2023-05-17T06:57:06.154Z,12.57
2023-05-17T06:59:35.579Z,12.63
2023-05-17T07:02:12.155Z,12.58
2023-05-17T07:04:42.207Z,12.53
2023-05-17T07:07:12.900Z,12.49
2023-05-17T07:09:42.976Z,12.54
2023-05-17T07:12:15.468Z,12.58
2023-05-17T07:14:45.530Z,12.63
2023-05-17T07:17:20.157Z,12.71
2023-05-17T07:19:52.282Z,12.81
2023-05-17T07:22:24.062Z,12.84
2023-05-17T07:24:57.332Z,12.87
2023-05-17T07:27:31.162Z,12.96
2023-05-17T07:30:02.832Z,12.94
2023-05-17T07:32:33.682Z,12.80
2023-05-17T07:35:04.146Z,12.77
2023-05-17T07:37:33.537Z,13.07
2023-05-17T07:40:05.179Z,13.39
2023-05-17T07:42:36.201Z,13.65
2023-05-17T07:45:06.727Z,13.81
2023-05-17T07:47:38.308Z,13.93
2023-05-17T07:50:10.266Z,13.98
2023-05-17T07:52:39.852Z,14.00
2023-05-17T07:55:13.742Z,14.08
2023-05-17T07:57:47.619Z,14.13
2023-05-17T08:00:20.363Z,14.07
2023-05-17T08:02:52.375Z,14.10
2023-05-17T08:05:22.411Z,14.02
2023-05-17T08:08:10.123Z,13.95
2023-05-17T08:10:42.310Z,14.02
2023-05-17T08:13:12.580Z,14.08
2023-05-17T08:15:41.934Z,14.22
2023-05-17T08:18:13.817Z,14.32
2023-05-17T08:20:44.663Z,14.42
2023-05-17T08:23:14.140Z,14.42
2023-05-17T08:25:44.195Z,14.42
2023-05-17T08:28:13.662Z,14.43
2023-05-17T08:30:43.510Z,14.43
2023-05-17T08:33:15.102Z,14.51
2023-05-17T08:35:51.245Z,14.62
2023-05-17T08:38:22.294Z,14.71
2023-05-17T08:41:02.679Z,14.75
2023-05-17T08:43:34.181Z,14.80
2023-05-17T08:46:04.907Z,14.84
2023-05-17T08:48:42.350Z,14.89
2023-05-17T08:51:12.524Z,15.01
2023-05-17T08:53:47.557Z,15.09
2023-05-17T08:56:20.723Z,15.14
2023-05-17T08:58:57.852Z,15.23
2023-05-17T09:01:34.761Z,15.36
2023-05-17T09:04:13.995Z,15.43
2023-05-17T09:06:46.787Z,15.36
2023-05-17T09:09:19.268Z,15.42
2023-05-17T09:11:49.680Z,15.43
2023-05-17T09:14:19.959Z,15.40
2023-05-17T09:16:51.050Z,15.40
2023-05-17T09:19:25.407Z,15.39
2023-05-17T09:21:58.964Z,15.36
2023-05-17T09:24:32.491Z,15.38
2023-05-17T09:27:12.946Z,15.42
2023-05-17T09:29:42.964Z,15.41
2023-05-17T09:32:17.276Z,15.31
2023-05-17T09:34:52.382Z,15.19
2023-05-17T09:37:31.738Z,15.01
2023-05-17T09:40:07.780Z,14.85
2023-05-17T09:42:41.754Z,14.76
2023-05-17T09:45:14.795Z,14.73
2023-05-17T09:47:44.517Z,14.69
2023-05-17T09:50:25.352Z,14.70
2023-05-17T09:52:57.205Z,14.66
2023-05-17T09:55:29.867Z,14.53
2023-05-17T09:58:06.718Z,14.41
2023-05-17T10:00:47.209Z,14.26
2023-05-17T10:03:19.520Z,14.13
2023-05-17T10:05:54.922Z,14.13
2023-05-17T10:08:27.581Z,14.33
2023-05-17T10:11:00.899Z,14.66
2023-05-17T10:13:36.743Z,14.95
2023-05-17T10:16:09.425Z,15.16
2023-05-17T10:18:41.829Z,15.43
2023-05-17T10:21:14.189Z,15.55
2023-05-17T10:23:47.384Z,15.54
2023-05-17T10:26:29.392Z,15.72
2023-05-17T10:29:18.591Z,16.03
2023-05-17T10:31:50.238Z,16.34
2023-05-17T10:34:23.772Z,16.59
2023-05-17T10:37:11.825Z,17.00
2023-05-17T10:39:47.833Z,17.18
2023-05-17T10:42:22.505Z,17.14
2023-05-17T10:44:56.530Z,17.13
2023-05-17T10:47:35.862Z,17.26
2023-05-17T10:50:15.291Z,17.29
2023-05-17T10:52:57.945Z,17.19
2023-05-17T10:55:39.620Z,17.05
2023-05-17T10:58:30.382Z,17.11
2023-05-17T11:01:08.395Z,17.17
2023-05-17T11:03:40.090Z,17.08
2023-05-17T11:06:24.502Z,16.99
2023-05-17T11:09:18.394Z,17.07
2023-05-17T11:12:09.389Z,17.32
2023-05-17T11:14:54.370Z,17.61
2023-05-17T11:17:28.534Z,18.03
2023-05-17T11:20:06.529Z,18.23
2023-05-17T11:22:42.435Z,18.33
2023-05-17T11:25:18.693Z,18.29
2023-05-17T11:27:54.065Z,18.27
2023-05-17T11:30:28.938Z,18.08
2023-05-17T11:33:05.681Z,17.96
2023-05-17T11:35:40.649Z,18.02
2023-05-17T11:38:22.372Z,17.89
2023-05-17T11:40:56.900Z,17.71
2023-05-17T11:43:31.331Z,18.06
2023-05-17T11:46:05.946Z,18.62
2023-05-17T11:48:37.099Z,18.87
2023-05-17T11:51:09.918Z,18.82
2023-05-17T11:53:42.038Z,18.73
2023-05-17T11:56:13.497Z,18.44
2023-05-17T11:58:46.483Z,18.30
2023-05-17T12:01:16.600Z,18.25
2023-05-17T12:03:50.563Z,18.84
2023-05-17T12:06:21.126Z,19.57
2023-05-17T12:08:56.690Z,19.72
2023-05-17T12:11:29.853Z,20.03
2023-05-17T12:14:00.217Z,20.31
2023-05-17T12:16:33.227Z,20.36
2023-05-17T12:19:09.793Z,20.20
2023-05-17T12:21:41.172Z,19.91
2023-05-17T12:24:10.830Z,19.99
2023-05-17T12:26:45.770Z,20.88
2023-05-17T12:29:18.471Z,21.76
2023-05-17T12:31:53.668Z,22.57
2023-05-17T12:34:23.995Z,22.22
2023-05-17T12:36:55.315Z,21.43
2023-05-17T12:39:25.930Z,21.00
2023-05-17T12:41:57.429Z,20.84
2023-05-17T12:44:32.136Z,21.29
2023-05-17T12:47:05.320Z,22.17
2023-05-17T12:49:41.375Z,22.20
2023-05-17T12:52:16.448Z,21.67
2023-05-17T12:54:46.955Z,21.07
2023-05-17T12:57:22.487Z,20.97
2023-05-17T12:59:56.143Z,21.81
2023-05-17T13:02:25.679Z,22.80
2023-05-17T13:04:56.539Z,23.95
2023-05-17T13:07:27.799Z,24.68
2023-05-17T13:09:58.711Z,24.71
2023-05-17T13:12:30.188Z,23.87
2023-05-17T13:15:00.374Z,22.80
2023-05-17T13:17:40.801Z,21.83
2023-05-17T13:20:11.622Z,21.98
2023-05-17T13:22:45.987Z,23.16
2023-05-17T13:25:17.992Z,23.95
2023-05-17T13:27:50.060Z,24.46
2023-05-17T13:30:19.376Z,25.26
2023-05-17T13:32:49.347Z,25.51
2023-05-17T13:35:18.980Z,24.99
2023-05-17T13:37:49.108Z,24.27
2023-05-17T13:40:20.284Z,23.77
2023-05-17T13:42:51.282Z,23.70
2023-05-17T13:45:20.361Z,23.47
2023-05-17T13:47:49.655Z,22.53
2023-05-17T13:50:22.376Z,21.89
2023-05-17T13:52:51.903Z,21.79
2023-05-17T13:55:23.162Z,21.76
2023-05-17T13:57:54.648Z,21.90
2023-05-17T14:00:27.197Z,23.37
2023-05-17T14:02:59.131Z,24.38
2023-05-17T14:05:29.274Z,23.77
2023-05-17T14:07:59.705Z,23.16
2023-05-17T14:10:32.455Z,23.07
2023-05-17T14:13:03.480Z,22.67
2023-05-17T14:15:33.106Z,22.25
2023-05-17T14:18:02.232Z,21.78
2023-05-17T14:20:36.331Z,22.46
2023-05-17T14:23:06.147Z,22.24
2023-05-17T14:25:36.670Z,23.47
2023-05-17T14:28:07.406Z,24.82
2023-05-17T14:30:37.386Z,26.04
2023-05-17T14:33:09.387Z,27.13
2023-05-17T14:35:40.836Z,27.40
2023-05-17T14:38:11.201Z,26.16
2023-05-17T14:40:40.248Z,26.36
2023-05-17T14:43:12.123Z,26.80
2023-05-17T14:45:43.649Z,27.13
2023-05-17T14:48:13.435Z,27.70
2023-05-17T14:50:43.133Z,28.37
2023-05-17T14:53:13.249Z,28.75
2023-05-17T14:55:42.691Z,28.23
2023-05-17T14:58:13.655Z,27.76
2023-05-17T15:00:48.572Z,26.29
2023-05-17T15:03:22.278Z,24.79
2023-05-17T15:05:57.294Z,23.57
2023-05-17T15:08:29.744Z,22.53
2023-05-17T15:11:00.327Z,21.81
2023-05-17T15:13:32.721Z,21.29
2023-05-17T15:16:05.594Z,20.60
2023-05-17T15:18:37.219Z,20.22
2023-05-17T15:21:08.228Z,19.99
2023-05-17T15:23:38.668Z,19.93
2023-05-17T15:26:10.704Z,21.18
2023-05-17T15:28:43.920Z,22.35
2023-05-17T15:31:17.692Z,21.59
2023-05-17T15:33:48.738Z,20.88
2023-05-17T15:36:17.898Z,20.41
2023-05-17T15:38:48.062Z,19.96
2023-05-17T15:41:19.830Z,19.68
2023-05-17T15:43:56.002Z,19.75
2023-05-17T15:46:33.662Z,20.31
2023-05-17T15:49:02.581Z,20.55
2023-05-17T15:51:32.672Z,20.26
2023-05-17T15:54:02.110Z,19.89
2023-05-17T15:56:32.575Z,19.63
2023-05-17T15:59:03.511Z,19.45
2023-05-17T16:01:38.253Z,20.18
2023-05-17T16:04:08.397Z,20.55
2023-05-17T16:06:38.689Z,20.07
2023-05-17T16:09:08.626Z,19.50
2023-05-17T16:11:38.682Z,19.01
2023-05-17T16:14:10.668Z,18.56
2023-05-17T16:16:40.066Z,18.26
2023-05-17T16:19:09.902Z,18.03
2023-05-17T16:21:39.269Z,17.78
2023-05-17T16:24:09.425Z,17.77
2023-05-17T16:26:40.454Z,17.61
2023-05-17T16:29:13.993Z,17.39
2023-05-17T16:31:44.160Z,17.27
2023-05-17T16:34:13.563Z,17.15
2023-05-17T16:36:47.503Z,16.96
2023-05-17T16:39:27.615Z,16.80
2023-05-17T16:41:58.007Z,16.76
2023-05-17T16:44:29.814Z,16.74
2023-05-17T16:46:59.523Z,16.72
2023-05-17T16:49:30.748Z,16.72
2023-05-17T16:52:00.116Z,16.85
2023-05-17T16:54:38.155Z,17.17
2023-05-17T16:57:09.625Z,17.64
2023-05-17T16:59:41.701Z,17.68
2023-05-17T17:02:12.576Z,17.66
2023-05-17T17:04:42.610Z,19.14
2023-05-17T17:07:20.380Z,21.14
2023-05-17T17:09:50.232Z,22.60
2023-05-17T17:12:24.041Z,22.60
2023-05-17T17:17:42.555Z,23.12
2023-05-17T17:20:14.672Z,23.88
2023-05-17T17:22:46.227Z,23.96
2023-05-17T17:25:17.290Z,23.08
2023-05-17T17:27:50.518Z,21.81
2023-05-17T17:30:31.638Z,20.58
2023-05-17T17:33:02.497Z,19.48
2023-05-17T17:35:32.003Z,18.65
2023-05-17T17:38:03.458Z,18.01
2023-05-17T17:40:34.065Z,17.47
2023-05-17T17:43:03.632Z,17.00
2023-05-17T17:45:34.910Z,16.64
2023-05-17T17:48:04.329Z,16.32
2023-05-17T17:50:44.245Z,16.18
2023-05-17T17:53:13.784Z,16.07
2023-05-17T17:55:42.874Z,16.04
2023-05-17T17:58:12.177Z,15.98
2023-05-17T18:00:44.705Z,15.82
2023-05-17T18:03:14.367Z,15.69
2023-05-17T18:05:45.674Z,15.60
2023-05-17T18:08:15.201Z,15.58
2023-05-17T18:10:45.712Z,15.57
2023-05-17T18:13:16.382Z,15.48
2023-05-17T18:15:47.730Z,15.38
2023-05-17T18:18:18.508Z,15.25
2023-05-17T18:20:47.416Z,15.22
2023-05-17T18:23:18.652Z,15.21
2023-05-17T18:25:53.217Z,15.25
2023-05-17T18:28:37.550Z,15.28
2023-05-17T18:31:14.442Z,15.04
2023-05-17T18:33:44.026Z,14.78
2023-05-17T18:36:13.680Z,14.63
2023-05-17T18:38:43.430Z,14.50
2023-05-17T18:41:12.481Z,14.38
2023-05-17T18:43:41.746Z,14.28
2023-05-17T18:46:13.767Z,14.21
2023-05-17T18:48:43.688Z,14.13
2023-05-17T18:51:15.873Z,14.07
2023-05-17T18:53:45.368Z,13.93
2023-05-17T18:56:16.613Z,13.82
2023-05-17T18:58:46.391Z,13.74
2023-05-17T19:01:22.372Z,13.68
2023-05-17T19:03:55.399Z,13.64
2023-05-17T19:06:28.019Z,13.57
2023-05-17T19:09:01.197Z,13.46
2023-05-17T19:11:32.548Z,13.32
2023-05-17T19:14:05.222Z,13.22
2023-05-17T19:16:36.672Z,13.13
2023-05-17T19:19:07.292Z,13.08
2023-05-17T19:21:36.466Z,13.02
2023-05-17T19:24:07.781Z,12.96
2023-05-17T19:26:37.920Z,12.92
2023-05-17T19:29:08.009Z,12.88
2023-05-17T19:31:41.557Z,12.83
2023-05-17T19:34:12.662Z,12.84
2023-05-17T19:36:43.787Z,12.78
2023-05-17T19:39:13.594Z,12.71
2023-05-17T19:41:42.239Z,12.65
2023-05-17T19:44:11.773Z,12.63
2023-05-17T19:46:43.286Z,12.60
2023-05-17T19:49:13.448Z,12.56
2023-05-17T19:51:43.694Z,12.54
2023-05-17T19:54:12.395Z,12.51
2023-05-17T19:56:42.804Z,12.50
2023-05-17T19:59:12.303Z,12.49
2023-05-17T20:01:42.637Z,12.49
2023-05-17T20:04:11.941Z,12.48
2023-05-17T20:06:42.186Z,12.46
2023-05-17T20:09:12.737Z,12.46
2023-05-17T20:11:41.616Z,12.45
2023-05-17T20:14:12.672Z,12.45
2023-05-17T20:16:44.484Z,12.44
2023-05-17T20:19:14.545Z,12.42
2023-05-17T20:21:43.464Z,12.43
2023-05-17T20:26:56.726Z,12.45
2023-05-17T20:29:33.842Z,12.43
2023-05-17T20:32:05.010Z,12.40
2023-05-17T20:34:35.066Z,12.41
2023-05-17T20:37:04.611Z,12.43
2023-05-17T20:39:35.502Z,12.44
2023-05-17T20:42:04.721Z,12.43
2023-05-17T20:44:34.497Z,12.38
2023-05-17T20:47:10.731Z,12.34
2023-05-17T20:49:40.382Z,12.30
2023-05-17T20:52:10.220Z,12.27
2023-05-17T20:54:40.822Z,12.25
2023-05-17T20:57:10.465Z,12.17
2023-05-17T20:59:40.080Z,12.15
2023-05-17T21:02:10.933Z,12.13
2023-05-17T21:04:39.988Z,12.12
2023-05-17T21:07:10.729Z,12.10
2023-05-17T21:09:41.359Z,12.11
2023-05-17T21:12:13.593Z,12.13
2023-05-17T21:14:42.817Z,12.13
2023-05-17T21:17:14.240Z,12.14
2023-05-17T21:19:42.904Z,12.15
2023-05-17T21:22:11.564Z,12.15
2023-05-17T21:24:41.058Z,12.15
2023-05-17T21:27:11.264Z,12.15
2023-05-17T21:29:40.303Z,12.15
2023-05-17T21:32:09.822Z,12.14
2023-05-17T21:34:51.069Z,12.10
2023-05-17T21:37:33.114Z,12.07
2023-05-17T21:40:03.302Z,12.04
2023-05-17T21:42:32.236Z,12.02
2023-05-17T21:45:01.092Z,12.01
2023-05-17T21:47:31.797Z,11.99
2023-05-17T21:50:03.035Z,11.98
2023-05-17T21:52:32.797Z,11.96
2023-05-17T21:55:02.105Z,11.95
2023-05-17T21:57:36.112Z,11.95
2023-05-17T22:00:09.373Z,11.95
2023-05-17T22:02:39.965Z,11.94
2023-05-17T22:05:20.232Z,11.93
2023-05-17T22:07:52.391Z,11.93
2023-05-17T22:10:24.647Z,11.92
2023-05-17T22:12:54.760Z,11.90
2023-05-17T22:15:29.090Z,11.89
2023-05-17T22:17:59.243Z,11.88
2023-05-17T22:20:31.193Z,11.88
2023-05-17T22:23:01.509Z,11.86
2023-05-17T22:25:30.941Z,11.85
2023-05-17T22:28:00.490Z,11.84
2023-05-17T22:30:34.571Z,11.83
2023-05-17T22:33:04.405Z,11.81
2023-05-17T22:35:36.532Z,11.78
2023-05-17T22:38:06.789Z,11.75
2023-05-17T22:40:37.040Z,11.72
2023-05-17T22:43:08.250Z,11.68
2023-05-17T22:45:45.297Z,11.66
2023-05-17T22:48:16.053Z,11.63
2023-05-17T22:50:48.520Z,11.61
2023-05-17T22:53:21.403Z,11.59
2023-05-17T22:55:51.755Z,11.58
2023-05-17T22:58:25.215Z,11.56
2023-05-17T23:00:54.807Z,11.53
2023-05-17T23:03:25.190Z,11.53
2023-05-17T23:06:03.275Z,11.51
2023-05-17T23:08:32.880Z,11.51
2023-05-17T23:11:05.097Z,11.50
2023-05-17T23:13:37.042Z,11.48
2023-05-17T23:16:08.650Z,11.47
2023-05-17T23:18:41.193Z,11.46
2023-05-17T23:21:12.349Z,11.43
2023-05-17T23:23:42.416Z,11.41
2023-05-17T23:26:11.841Z,11.38
2023-05-17T23:28:44.906Z,11.35
2023-05-17T23:31:16.989Z,11.30
2023-05-17T23:33:46.890Z,11.24
2023-05-17T23:36:22.138Z,11.19
2023-05-17T23:38:52.191Z,11.15
2023-05-17T23:41:25.868Z,11.10
2023-05-17T23:43:57.272Z,11.07
2023-05-17T23:46:27.155Z,11.05
2023-05-17T23:48:58.984Z,11.03
2023-05-17T23:51:33.588Z,11.01
2023-05-17T23:54:02.931Z,10.98
2023-05-17T23:56:32.551Z,10.97
2023-05-17T23:59:02.478Z,10.97
